createdAt,value
2023-03-23T15:57:56.818Z,34.26
2023-03-23T16:00:27.023Z,34.28
2023-03-23T16:03:02.445Z,34.46
2023-03-23T16:05:29.220Z,34.96
2023-03-23T16:07:56.118Z,35.83
2023-03-23T16:10:24.751Z,36.07
2023-03-23T16:12:52.223Z,35.84
2023-03-23T16:15:19.465Z,36.50
2023-03-23T16:17:49.122Z,36.57
2023-03-23T16:20:21.746Z,36.99
2023-03-23T16:22:50.017Z,36.89
2023-03-23T16:25:19.682Z,36.69
2023-03-23T16:27:52.052Z,36.35
2023-03-23T16:30:28.208Z,36.54
2023-03-23T16:32:57.474Z,36.40
2023-03-23T16:35:25.409Z,36.06
2023-03-23T16:38:08.347Z,35.84
2023-03-23T16:40:38.740Z,35.98
2023-03-23T16:43:10.578Z,35.56
2023-03-23T16:45:41.005Z,35.73
2023-03-23T16:48:10.317Z,35.59
2023-03-23T16:50:37.967Z,35.81
2023-03-23T16:53:07.095Z,35.77
2023-03-23T16:55:34.799Z,35.66
2023-03-23T16:58:15.462Z,35.48
2023-03-23T17:00:45.263Z,35.59
2023-03-23T17:03:13.500Z,35.61
2023-03-23T17:05:40.835Z,35.85
2023-03-23T17:08:08.359Z,36.20
2023-03-23T17:10:38.605Z,36.35
2023-03-23T17:13:05.529Z,36.48
2023-03-23T17:15:32.273Z,36.60
2023-03-23T17:17:59.009Z,36.48
2023-03-23T17:20:25.698Z,36.72
2023-03-23T17:22:52.329Z,36.73
2023-03-23T17:25:18.984Z,36.44
2023-03-23T17:27:45.608Z,36.34
2023-03-23T17:30:13.600Z,36.12
2023-03-23T17:32:40.447Z,36.07
2023-03-23T17:35:07.390Z,36.06
2023-03-23T17:37:36.049Z,35.98
2023-03-23T17:40:03.757Z,36.05
2023-03-23T17:42:30.510Z,35.92
2023-03-23T17:44:59.954Z,35.86
2023-03-23T17:47:26.704Z,35.52
2023-03-23T17:49:53.336Z,35.45
2023-03-23T17:52:20.966Z,35.43
2023-03-23T17:54:47.719Z,35.35
2023-03-23T17:57:20.301Z,35.07
2023-03-23T17:59:47.456Z,34.91
2023-03-23T18:02:16.186Z,34.84
2023-03-23T18:04:43.152Z,34.83
2023-03-23T18:07:09.921Z,35.02
2023-03-23T18:09:37.942Z,35.22
2023-03-23T18:12:05.420Z,35.74
2023-03-23T18:14:32.017Z,35.67
2023-03-23T18:17:00.572Z,35.99
2023-03-23T18:19:30.067Z,36.08
2023-03-23T18:21:56.718Z,36.36
2023-03-23T18:24:23.950Z,36.35
2023-03-23T18:26:51.329Z,36.48
2023-03-23T18:29:20.833Z,36.43
2023-03-23T18:31:47.728Z,36.38
2023-03-23T18:34:17.265Z,36.27
2023-03-23T18:36:43.886Z,36.38
2023-03-23T18:39:13.461Z,36.28
2023-03-23T18:41:40.584Z,36.33
2023-03-23T18:44:07.485Z,36.50
2023-03-23T18:46:34.213Z,36.55
2023-03-23T18:49:00.877Z,36.44
2023-03-23T18:51:27.553Z,36.36
2023-03-23T18:53:58.667Z,36.44
2023-03-23T18:56:25.702Z,36.50
2023-03-23T18:58:53.417Z,36.50
2023-03-23T19:01:21.575Z,36.26
2023-03-23T19:03:48.483Z,36.47
2023-03-23T19:06:21.467Z,36.16
2023-03-23T19:08:49.315Z,35.85
2023-03-23T19:11:17.037Z,35.78
2023-03-23T19:13:58.498Z,35.52
2023-03-23T19:16:28.681Z,35.33
2023-03-23T19:18:55.320Z,35.54
2023-03-23T19:21:26.406Z,35.49
2023-03-23T19:23:59.852Z,35.39
2023-03-23T19:26:37.951Z,35.45
2023-03-23T19:31:44.029Z,35.18
2023-03-23T19:34:12.964Z,35.07
2023-03-23T19:37:05.274Z,34.82
2023-03-23T19:39:44.415Z,34.96
2023-03-23T19:42:11.165Z,34.98
2023-03-23T19:44:37.769Z,34.79
2023-03-23T19:47:09.099Z,34.84
2023-03-23T19:49:38.767Z,35.11
2023-03-23T19:52:13.142Z,35.84
2023-03-23T19:54:41.547Z,36.29
2023-03-23T19:57:11.839Z,36.54
2023-03-23T19:59:42.679Z,36.59
2023-03-23T20:02:12.885Z,36.66
2023-03-23T20:04:40.053Z,36.79
2023-03-23T20:07:08.284Z,36.48
2023-03-23T20:09:38.440Z,36.91
2023-03-23T20:12:06.423Z,36.71
2023-03-23T20:14:34.941Z,37.19
2023-03-23T20:17:02.740Z,37.45
2023-03-23T20:19:30.797Z,37.52
2023-03-23T20:22:00.448Z,37.28
2023-03-23T20:24:27.138Z,37.35
2023-03-23T20:26:55.875Z,37.33
2023-03-23T20:29:25.417Z,37.29
2023-03-23T20:31:54.803Z,37.50
2023-03-23T20:34:28.972Z,37.31
2023-03-23T20:36:57.772Z,37.22
2023-03-23T20:39:30.432Z,37.08
2023-03-23T20:42:05.887Z,37.10
2023-03-23T20:44:35.495Z,37.30
2023-03-23T20:47:03.408Z,37.30
2023-03-23T20:49:30.870Z,37.25
2023-03-23T20:51:58.502Z,37.13
2023-03-23T20:54:25.673Z,37.10
2023-03-23T20:56:54.868Z,37.20
2023-03-23T20:59:23.436Z,37.19
2023-03-23T21:01:50.534Z,37.05
2023-03-23T21:04:20.310Z,37.02
2023-03-23T21:06:51.917Z,37.01
2023-03-23T21:09:19.686Z,37.14
2023-03-23T21:11:46.914Z,37.07
2023-03-23T21:14:14.333Z,37.16
2023-03-23T21:16:41.765Z,36.87
2023-03-23T21:19:09.625Z,36.96
2023-03-23T21:21:36.410Z,37.02
2023-03-23T21:24:03.758Z,37.01
2023-03-23T21:26:30.627Z,36.89
2023-03-23T21:29:00.051Z,36.92
2023-03-23T21:31:33.305Z,37.05
2023-03-23T21:34:00.964Z,37.01
2023-03-23T21:38:51.432Z,37.67
2023-03-23T21:41:18.218Z,38.05
2023-03-23T21:43:45.781Z,38.24
2023-03-23T21:46:18.114Z,38.40
2023-03-23T21:48:52.531Z,38.77
2023-03-23T21:51:23.739Z,39.00
2023-03-23T21:53:54.516Z,39.04
2023-03-23T21:58:42.485Z,39.41
2023-03-23T22:01:10.480Z,39.41
2023-03-23T22:05:55.466Z,39.71
2023-03-23T22:08:27.851Z,40.10
2023-03-23T22:11:02.206Z,40.10
2023-03-23T22:13:31.033Z,40.16
2023-03-23T22:16:03.527Z,40.38
2023-03-23T22:18:30.696Z,40.63
2023-03-23T22:20:59.024Z,40.64
2023-03-23T22:23:26.747Z,40.20
2023-03-23T22:25:53.930Z,39.70
2023-03-23T22:28:20.939Z,39.41
2023-03-23T22:30:47.765Z,39.14
2023-03-23T22:33:14.740Z,38.85
2023-03-23T22:35:41.285Z,38.56
2023-03-23T22:38:07.948Z,38.33
2023-03-23T22:40:34.852Z,38.01
2023-03-23T22:43:01.471Z,37.92
2023-03-23T22:45:28.136Z,37.92
2023-03-23T22:47:54.880Z,37.37
2023-03-23T22:50:24.003Z,37.51
2023-03-23T22:52:50.882Z,37.44
2023-03-23T22:55:17.808Z,37.44
2023-03-23T22:57:44.551Z,37.09
2023-03-23T23:00:14.389Z,37.22
2023-03-23T23:02:44.546Z,37.17
2023-03-23T23:05:12.382Z,37.02
2023-03-23T23:07:39.534Z,36.94
2023-03-23T23:10:06.758Z,36.75
2023-03-23T23:12:35.156Z,36.82
2023-03-23T23:15:06.925Z,36.56
2023-03-23T23:17:34.615Z,36.25
2023-03-23T23:20:05.350Z,36.67
2023-03-23T23:22:32.518Z,36.73
2023-03-23T23:24:59.750Z,36.50
2023-03-23T23:27:26.642Z,36.30
2023-03-23T23:29:53.194Z,36.46
2023-03-23T23:32:20.640Z,36.41
2023-03-23T23:34:47.180Z,36.57
2023-03-23T23:37:13.906Z,36.35
2023-03-23T23:39:41.271Z,36.47
2023-03-23T23:42:08.304Z,36.18
2023-03-23T23:44:35.250Z,36.35
2023-03-23T23:47:02.457Z,36.20
2023-03-23T23:49:29.109Z,36.32
2023-03-23T23:51:56.646Z,36.11
2023-03-23T23:54:29.545Z,35.98
2023-03-23T23:56:58.298Z,36.05
2023-03-23T23:59:26.452Z,35.96
